createdAt,value
2023-02-22T00:00:04.915Z,7.30
2023-02-22T00:00:14.854Z,6.70
2023-02-22T00:00:24.852Z,7.00
2023-02-22T00:00:34.848Z,7.10
2023-02-22T00:00:44.845Z,7.20
2023-02-22T00:00:54.862Z,7.40
2023-02-22T00:01:04.867Z,7.30
2023-02-22T00:01:16.025Z,6.90
2023-02-22T00:01:24.844Z,6.90
2023-02-22T00:01:34.872Z,7.10
2023-02-22T00:01:44.854Z,7.40
2023-02-22T00:01:54.975Z,6.90
2023-02-22T00:02:04.941Z,6.40
2023-02-22T00:02:14.864Z,6.60
2023-02-22T00:02:24.835Z,7.10
2023-02-22T00:02:34.839Z,7.40
2023-02-22T00:02:44.905Z,7.30
2023-02-22T00:02:54.939Z,6.90
2023-02-22T00:03:04.859Z,7.30
2023-02-22T00:03:14.867Z,7.00
2023-02-22T00:03:25.170Z,7.10
2023-02-22T00:03:34.893Z,6.90
2023-02-22T00:03:44.917Z,7.40
2023-02-22T00:03:54.864Z,7.60
2023-02-22T00:04:04.842Z,7.60
2023-02-22T00:04:14.880Z,7.90
2023-02-22T00:04:24.853Z,7.70
2023-02-22T00:04:34.841Z,7.70
2023-02-22T00:04:44.899Z,7.30
2023-02-22T00:04:54.912Z,7.70
2023-02-22T00:05:04.825Z,7.60
2023-02-22T00:05:14.887Z,7.30
2023-02-22T00:05:24.831Z,7.00
2023-02-22T00:05:34.831Z,6.90
2023-02-22T00:05:44.825Z,6.80
2023-02-22T00:05:54.823Z,7.20
2023-02-22T00:06:04.916Z,7.50
2023-02-22T00:06:14.887Z,7.70
2023-02-22T00:06:24.849Z,7.60
2023-02-22T00:06:34.833Z,7.50
2023-02-22T00:06:44.833Z,7.20
2023-02-22T00:06:54.829Z,7.40
2023-02-22T00:07:04.816Z,7.10
2023-02-22T00:07:14.880Z,7.30
2023-02-22T00:07:24.836Z,6.80
2023-02-22T00:07:34.819Z,7.10
2023-02-22T00:07:44.949Z,7.00
2023-02-22T00:07:54.821Z,8.00
2023-02-22T00:08:04.818Z,8.00
2023-02-22T00:08:14.825Z,8.00
2023-02-22T00:08:24.838Z,7.10
2023-02-22T00:08:34.822Z,7.30
2023-02-22T00:08:44.810Z,8.00
2023-02-22T00:08:54.814Z,8.00
2023-02-22T00:09:04.920Z,8.10
2023-02-22T00:09:14.853Z,7.70
2023-02-22T00:09:24.821Z,7.10
2023-02-22T00:09:34.828Z,6.60
2023-02-22T00:09:44.822Z,6.50
2023-02-22T00:09:54.811Z,7.00
2023-02-22T00:10:04.947Z,7.40
2023-02-22T00:10:14.807Z,7.60
2023-02-22T00:10:24.811Z,7.60
2023-02-22T00:10:34.819Z,7.50
2023-02-22T00:10:44.839Z,7.30
2023-02-22T00:10:54.811Z,7.20
2023-02-22T00:11:05.701Z,7.80
2023-02-22T00:11:15.397Z,7.90
2023-02-22T00:11:24.833Z,8.30
2023-02-22T00:11:34.802Z,7.70
2023-02-22T00:11:44.802Z,7.40
2023-02-22T00:11:54.808Z,7.60
2023-02-22T00:12:04.802Z,7.90
2023-02-22T00:12:15.745Z,8.40
2023-02-22T00:12:24.856Z,8.00
2023-02-22T00:12:34.794Z,7.90
2023-02-22T00:12:45.734Z,8.10
2023-02-22T00:12:54.808Z,7.90
2023-02-22T00:13:05.698Z,8.30
2023-02-22T00:13:15.659Z,8.00
2023-02-22T00:13:24.806Z,8.40
2023-02-22T00:13:34.794Z,8.00
2023-02-22T00:13:44.800Z,7.70
2023-02-22T00:13:54.786Z,7.60
2023-02-22T00:14:04.783Z,7.90
2023-02-22T00:14:14.803Z,8.00
2023-02-22T00:14:24.799Z,8.00
2023-02-22T00:14:34.787Z,7.30
2023-02-22T00:14:44.807Z,7.50
2023-02-22T00:14:54.809Z,7.40
2023-02-22T00:15:05.864Z,8.70
2023-02-22T00:15:14.822Z,9.00
2023-02-22T00:15:24.792Z,9.30
2023-02-22T00:15:34.791Z,9.10
2023-02-22T00:15:44.790Z,8.90
2023-02-22T00:15:54.786Z,9.00
2023-02-22T00:16:04.825Z,8.40
2023-02-22T00:16:15.751Z,9.10
2023-02-22T00:16:24.858Z,8.30
2023-02-22T00:16:34.843Z,8.30
2023-02-22T00:16:44.873Z,8.00
2023-02-22T00:16:55.724Z,9.00
2023-02-22T00:17:04.798Z,9.10
2023-02-22T00:17:14.781Z,9.00
2023-02-22T00:17:24.798Z,8.20
2023-02-22T00:17:34.939Z,7.90
2023-02-22T00:17:44.770Z,7.80
2023-02-22T00:17:54.772Z,7.90
2023-02-22T00:18:04.776Z,8.20
2023-02-22T00:18:14.781Z,8.40
2023-02-22T00:18:24.790Z,8.60
2023-02-22T00:18:34.770Z,8.40
2023-02-22T00:18:44.782Z,8.10
2023-02-22T00:18:54.770Z,7.80
2023-02-22T00:19:04.780Z,7.70
2023-02-22T00:19:14.779Z,7.90
2023-02-22T00:19:25.706Z,8.40
2023-02-22T00:19:34.770Z,8.70
2023-02-22T00:19:44.765Z,8.50
2023-02-22T00:19:54.799Z,8.00
2023-02-22T00:20:04.759Z,8.10
2023-02-22T00:20:14.758Z,8.10
2023-02-22T00:20:24.783Z,8.60
2023-02-22T00:20:34.779Z,8.10
2023-02-22T00:20:44.758Z,7.90
2023-02-22T00:20:54.761Z,7.60
2023-02-22T00:21:04.757Z,8.30
2023-02-22T00:21:15.031Z,8.90
2023-02-22T00:21:24.761Z,9.10
2023-02-22T00:21:34.764Z,8.90
2023-02-22T00:21:44.763Z,8.60
2023-02-22T00:21:54.777Z,8.90
2023-02-22T00:22:04.764Z,8.60
2023-02-22T00:22:14.749Z,8.50
2023-02-22T00:22:24.770Z,7.90
2023-02-22T00:22:34.769Z,8.10
2023-02-22T00:22:44.806Z,8.30
2023-02-22T00:22:54.764Z,8.50
2023-02-22T00:23:04.744Z,8.60
2023-02-22T00:23:14.763Z,9.30
2023-02-22T00:23:24.762Z,9.30
2023-02-22T00:23:35.692Z,9.20
2023-02-22T00:23:44.746Z,8.50
2023-02-22T00:23:54.813Z,8.60
2023-02-22T00:24:04.756Z,8.70
2023-02-22T00:24:14.745Z,8.10
2023-02-22T00:24:24.766Z,8.00
2023-02-22T00:24:34.751Z,7.60
2023-02-22T00:24:44.762Z,8.50
2023-02-22T00:24:54.740Z,8.40
2023-02-22T00:25:04.738Z,8.90
2023-02-22T00:25:14.788Z,8.30
2023-02-22T00:25:24.751Z,8.60
2023-02-22T00:25:34.760Z,8.50
2023-02-22T00:25:44.751Z,8.90
2023-02-22T00:25:54.756Z,8.70
2023-02-22T00:26:04.877Z,8.70
2023-02-22T00:26:14.748Z,8.10
2023-02-22T00:26:24.748Z,8.30
2023-02-22T00:26:34.740Z,8.40
2023-02-22T00:26:44.753Z,8.70
2023-02-22T00:26:54.734Z,8.90
2023-02-22T00:27:04.764Z,9.20
2023-02-22T00:27:14.727Z,9.30
2023-02-22T00:27:24.781Z,8.80
2023-02-22T00:27:34.728Z,8.50
2023-02-22T00:27:44.774Z,8.00
2023-02-22T00:27:54.818Z,8.20
2023-02-22T00:28:04.733Z,8.10
2023-02-22T00:28:14.733Z,8.50
2023-02-22T00:28:24.778Z,8.50
2023-02-22T00:28:35.725Z,8.00
2023-02-22T00:28:44.816Z,8.30
2023-02-22T00:28:54.723Z,8.00
2023-02-22T00:29:04.744Z,8.50
2023-02-22T00:29:14.718Z,8.00
2023-02-22T00:29:24.743Z,8.80
2023-02-22T00:29:34.751Z,8.50
2023-02-22T00:29:44.724Z,8.20
2023-02-22T00:29:54.726Z,8.10
2023-02-22T00:30:04.750Z,8.10
2023-02-22T00:30:14.776Z,8.30
2023-02-22T00:30:25.802Z,8.40
2023-02-22T00:30:34.779Z,8.50
2023-02-22T00:30:44.715Z,8.60
2023-02-22T00:30:54.840Z,8.40
2023-02-22T00:31:04.726Z,9.40
2023-02-22T00:31:15.301Z,9.50
2023-02-22T00:31:24.783Z,9.10
2023-02-22T00:31:34.815Z,8.30
2023-02-22T00:31:44.787Z,7.90
2023-02-22T00:31:54.883Z,8.60
2023-02-22T00:32:04.777Z,8.50
2023-02-22T00:32:14.830Z,8.50
2023-02-22T00:32:24.736Z,7.90
2023-02-22T00:32:34.779Z,8.20
2023-02-22T00:32:44.730Z,8.40
2023-02-22T00:32:54.720Z,8.50
2023-02-22T00:33:04.796Z,8.70
2023-02-22T00:33:14.700Z,8.70
2023-02-22T00:33:24.706Z,8.40
2023-02-22T00:33:34.707Z,8.00
2023-02-22T00:33:44.725Z,8.20
2023-02-22T00:33:54.701Z,8.40
2023-02-22T00:34:04.827Z,8.10
2023-02-22T00:34:14.708Z,7.90
2023-02-22T00:34:24.706Z,7.70
2023-02-22T00:34:34.695Z,8.20
2023-02-22T00:34:44.710Z,8.20
2023-02-22T00:34:54.713Z,8.20
2023-02-22T00:35:04.703Z,8.60
2023-02-22T00:35:14.706Z,9.00
2023-02-22T00:35:24.708Z,9.40
2023-02-22T00:35:34.690Z,8.70
2023-02-22T00:35:44.704Z,8.60
2023-02-22T00:35:54.697Z,8.60
2023-02-22T00:36:04.705Z,9.50
2023-02-22T00:36:14.699Z,10.00
2023-02-22T00:36:24.692Z,9.80
2023-02-22T00:36:34.701Z,9.00
2023-02-22T00:36:44.720Z,8.80
2023-02-22T00:36:54.733Z,9.10
2023-02-22T00:37:04.728Z,8.90
2023-02-22T00:37:14.713Z,8.70
2023-02-22T00:37:24.729Z,8.40
2023-02-22T00:37:35.217Z,8.00
2023-02-22T00:37:44.700Z,8.00
2023-02-22T00:37:54.681Z,8.60
2023-02-22T00:38:04.710Z,9.20
2023-02-22T00:38:14.752Z,8.80
2023-02-22T00:38:24.694Z,8.10
2023-02-22T00:38:34.684Z,8.10
2023-02-22T00:38:44.683Z,8.30
2023-02-22T00:38:54.680Z,8.80
2023-02-22T00:39:04.676Z,8.80
2023-02-22T00:39:14.718Z,8.70
2023-02-22T00:39:25.205Z,9.40
2023-02-22T00:39:34.675Z,9.00
2023-02-22T00:39:44.690Z,9.20
2023-02-22T00:39:54.693Z,7.90
2023-02-22T00:40:04.712Z,8.40
2023-02-22T00:40:14.712Z,7.90
2023-02-22T00:40:24.694Z,8.20
2023-02-22T00:40:34.687Z,7.90
2023-02-22T00:40:44.674Z,8.00
2023-02-22T00:40:54.714Z,8.00
2023-02-22T00:41:04.678Z,9.40
2023-02-22T00:41:15.187Z,9.70
2023-02-22T00:41:24.700Z,9.50
2023-02-22T00:41:34.711Z,7.90
2023-02-22T00:41:44.767Z,8.00
2023-02-22T00:41:54.728Z,7.90
2023-02-22T00:42:04.680Z,8.30
2023-02-22T00:42:14.780Z,8.00
2023-02-22T00:42:24.705Z,8.50
2023-02-22T00:42:34.660Z,8.70
2023-02-22T00:42:44.672Z,9.00
2023-02-22T00:42:54.679Z,8.90
2023-02-22T00:43:04.668Z,8.70
2023-02-22T00:43:14.678Z,8.50
2023-02-22T00:43:24.767Z,8.20
2023-02-22T00:43:34.658Z,7.80
2023-02-22T00:43:44.670Z,8.00
2023-02-22T00:43:54.659Z,8.20
2023-02-22T00:44:04.680Z,8.70
2023-02-22T00:44:15.256Z,8.80
2023-02-22T00:44:25.266Z,9.30
2023-02-22T00:44:34.651Z,9.00
2023-02-22T00:44:44.694Z,9.30
2023-02-22T00:44:54.665Z,9.00
2023-02-22T00:45:04.670Z,9.10
2023-02-22T00:45:14.683Z,8.30
2023-02-22T00:45:24.673Z,8.30
2023-02-22T00:45:34.710Z,8.60
2023-02-22T00:45:44.690Z,9.00
2023-02-22T00:45:54.669Z,9.40
2023-02-22T00:46:05.268Z,9.30
2023-02-22T00:46:14.669Z,9.30
2023-02-22T00:46:24.738Z,8.70
2023-02-22T00:46:34.730Z,8.60
2023-02-22T00:46:44.654Z,8.50
2023-02-22T00:46:54.644Z,8.90
2023-02-22T00:47:04.680Z,8.70
2023-02-22T00:47:14.648Z,9.20
2023-02-22T00:47:24.671Z,8.90
2023-02-22T00:47:34.659Z,9.10
2023-02-22T00:47:44.638Z,9.00
2023-02-22T00:47:54.666Z,9.20
2023-02-22T00:48:04.654Z,9.10
2023-02-22T00:48:14.660Z,8.60
2023-02-22T00:48:25.203Z,8.50
2023-02-22T00:48:34.823Z,8.80
2023-02-22T00:48:44.666Z,9.20
2023-02-22T00:48:54.648Z,9.30
2023-02-22T00:49:04.631Z,9.20
2023-02-22T00:49:14.662Z,9.20
2023-02-22T00:49:24.651Z,9.10
2023-02-22T00:49:34.638Z,8.80
2023-02-22T00:49:44.632Z,8.20
2023-02-22T00:49:54.668Z,8.20
2023-02-22T00:50:04.632Z,7.90
2023-02-22T00:50:14.640Z,8.50
2023-02-22T00:50:24.694Z,8.10
2023-02-22T00:50:35.262Z,8.60
2023-02-22T00:50:44.726Z,8.30
2023-02-22T00:50:54.630Z,8.50
2023-02-22T00:51:04.627Z,8.70
2023-02-22T00:51:15.088Z,9.10
2023-02-22T00:51:24.626Z,9.30
2023-02-22T00:51:34.629Z,8.80
2023-02-22T00:51:44.634Z,8.20
2023-02-22T00:51:54.634Z,8.20
2023-02-22T00:52:04.623Z,8.50
2023-02-22T00:52:14.681Z,8.70
2023-02-22T00:52:24.644Z,8.90
2023-02-22T00:52:34.661Z,8.70
2023-02-22T00:52:44.670Z,8.60
2023-02-22T00:52:54.645Z,8.90
2023-02-22T00:53:04.630Z,8.60
2023-02-22T00:53:14.612Z,9.40
2023-02-22T00:53:24.630Z,9.30
2023-02-22T00:53:34.711Z,9.50
2023-02-22T00:53:44.652Z,8.90
2023-02-22T00:53:54.631Z,8.80
2023-02-22T00:54:04.619Z,8.60
2023-02-22T00:54:14.658Z,8.40
2023-02-22T00:54:24.675Z,8.00
2023-02-22T00:54:34.633Z,8.40
2023-02-22T00:54:44.723Z,8.60
2023-02-22T00:54:54.697Z,8.90
2023-02-22T00:55:04.621Z,9.00
2023-02-22T00:55:14.623Z,8.90
2023-02-22T00:55:24.605Z,9.00
2023-02-22T00:55:34.622Z,9.00
2023-02-22T00:55:45.208Z,9.00
2023-02-22T00:55:54.615Z,9.00
2023-02-22T00:56:04.636Z,8.60
2023-02-22T00:56:14.607Z,8.80
2023-02-22T00:56:24.646Z,8.70
2023-02-22T00:56:34.633Z,8.70
2023-02-22T00:56:44.656Z,8.60
2023-02-22T00:56:55.215Z,8.20
2023-02-22T00:57:04.730Z,8.80
2023-02-22T00:57:14.596Z,8.50
2023-02-22T00:57:24.607Z,8.80
2023-02-22T00:57:34.636Z,8.40
2023-02-22T00:57:44.635Z,8.80
2023-02-22T00:57:55.225Z,8.90
2023-02-22T00:58:04.649Z,9.00
2023-02-22T00:58:14.615Z,9.00
2023-02-22T00:58:24.616Z,9.20
2023-02-22T00:58:34.592Z,8.70
2023-02-22T00:58:44.597Z,8.60
2023-02-22T00:58:54.653Z,8.40
2023-02-22T00:59:04.690Z,9.00
2023-02-22T00:59:14.588Z,9.10
2023-02-22T00:59:24.599Z,9.00
2023-02-22T00:59:34.603Z,8.40
2023-02-22T00:59:44.586Z,8.50
2023-02-22T00:59:54.623Z,8.30
2023-02-22T01:00:04.602Z,8.80
2023-02-22T01:00:14.591Z,9.20
2023-02-22T01:00:24.634Z,9.30
2023-02-22T01:00:34.606Z,9.30
2023-02-22T01:00:44.595Z,9.00
2023-02-22T01:00:54.644Z,9.10
2023-02-22T01:01:05.260Z,9.30
2023-02-22T01:01:15.169Z,9.30
2023-02-22T01:01:24.731Z,9.50
2023-02-22T01:01:34.616Z,8.80
2023-02-22T01:01:44.589Z,9.00
2023-02-22T01:01:54.611Z,8.80
2023-02-22T01:02:04.613Z,9.00
2023-02-22T01:02:14.656Z,8.50
2023-02-22T01:02:25.480Z,8.60
2023-02-22T01:02:34.628Z,9.00
2023-02-22T01:02:44.659Z,9.30
2023-02-22T01:02:54.572Z,9.70
2023-02-22T01:03:04.581Z,9.40
2023-02-22T01:03:14.713Z,9.60
2023-02-22T01:03:24.579Z,9.40
2023-02-22T01:03:34.591Z,9.00
2023-02-22T01:03:44.566Z,8.60
2023-02-22T01:03:54.655Z,8.50
2023-02-22T01:04:04.622Z,9.10
2023-02-22T01:04:14.571Z,8.90
2023-02-22T01:04:24.598Z,8.70
2023-02-22T01:04:34.580Z,7.90
2023-02-22T01:04:44.621Z,8.40
2023-02-22T01:04:54.564Z,8.40
2023-02-22T01:05:04.637Z,9.00
2023-02-22T01:05:15.261Z,8.80
2023-02-22T01:05:24.563Z,9.00
2023-02-22T01:05:34.574Z,9.40
2023-02-22T01:05:44.596Z,9.90
2023-02-22T01:05:54.565Z,9.90
2023-02-22T01:06:04.576Z,9.30
2023-02-22T01:06:14.567Z,9.40
2023-02-22T01:06:25.292Z,9.20
2023-02-22T01:06:34.557Z,8.80
2023-02-22T01:06:44.591Z,8.30
2023-02-22T01:06:54.580Z,8.50
2023-02-22T01:07:04.553Z,8.50
2023-02-22T01:07:14.582Z,8.70
2023-02-22T01:07:24.671Z,8.70
2023-02-22T01:07:34.555Z,9.00
2023-02-22T01:07:44.550Z,8.80
2023-02-22T01:07:54.581Z,8.90
2023-02-22T01:08:05.227Z,9.10
2023-02-22T01:08:14.547Z,9.50
2023-02-22T01:08:24.570Z,9.70
2023-02-22T01:08:34.571Z,10.00
2023-02-22T01:08:44.554Z,9.80
2023-02-22T01:08:54.560Z,9.70
2023-02-22T01:09:04.548Z,9.20
2023-02-22T01:09:14.624Z,9.00
2023-02-22T01:09:25.202Z,9.10
2023-02-22T01:09:34.539Z,9.00
2023-02-22T01:09:44.565Z,9.10
2023-02-22T01:09:57.216Z,8.80
2023-02-22T01:10:04.543Z,9.20
2023-02-22T01:10:14.546Z,9.50
2023-02-22T01:10:24.543Z,9.70
2023-02-22T01:10:34.561Z,9.60
2023-02-22T01:10:44.556Z,10.00
2023-02-22T01:10:54.536Z,9.40
2023-02-22T01:11:04.537Z,9.30
2023-02-22T01:11:15.036Z,8.80
2023-02-22T01:11:24.539Z,9.20
2023-02-22T01:11:34.633Z,9.20
2023-02-22T01:11:44.562Z,9.30
2023-02-22T01:11:54.555Z,9.00
2023-02-22T01:12:04.549Z,9.10
2023-02-22T01:12:14.563Z,8.90
2023-02-22T01:12:24.528Z,9.00
2023-02-22T01:12:34.554Z,8.40
2023-02-22T01:12:44.566Z,9.10
2023-02-22T01:12:54.549Z,9.00
2023-02-22T01:13:04.673Z,9.10
2023-02-22T01:13:14.524Z,8.70
2023-02-22T01:13:24.546Z,8.60
2023-02-22T01:13:35.220Z,8.90
2023-02-22T01:13:44.554Z,9.10
2023-02-22T01:13:54.521Z,9.50
2023-02-22T01:14:04.542Z,9.30
2023-02-22T01:14:14.529Z,9.20
2023-02-22T01:14:24.612Z,9.30
2023-02-22T01:14:34.548Z,9.10
2023-02-22T01:14:44.530Z,9.30
2023-02-22T01:14:54.521Z,9.00
2023-02-22T01:15:04.520Z,9.40
2023-02-22T01:15:15.209Z,9.00
2023-02-22T01:15:24.526Z,9.00
2023-02-22T01:15:34.561Z,9.30
2023-02-22T01:15:44.611Z,9.90
2023-02-22T01:15:54.513Z,9.60
2023-02-22T01:16:04.525Z,8.90
2023-02-22T01:16:15.248Z,8.30
2023-02-22T01:16:24.633Z,8.60
2023-02-22T01:16:34.548Z,9.00
2023-02-22T01:16:44.613Z,9.10
2023-02-22T01:16:54.683Z,9.30
2023-02-22T01:17:04.511Z,9.40
2023-02-22T01:17:14.510Z,9.40
2023-02-22T01:17:25.392Z,9.60
2023-02-22T01:17:34.516Z,9.60
2023-02-22T01:17:45.218Z,9.30
2023-02-22T01:17:54.645Z,9.30
2023-02-22T01:18:04.510Z,8.80
2023-02-22T01:18:14.519Z,9.00
2023-02-22T01:18:24.505Z,8.60
2023-02-22T01:18:34.531Z,9.00
2023-02-22T01:18:44.506Z,9.50
2023-02-22T01:18:54.499Z,10.20
2023-02-22T01:19:04.501Z,10.50
2023-02-22T01:19:14.563Z,10.00
2023-02-22T01:19:24.498Z,9.50
2023-02-22T01:19:34.581Z,9.80
2023-02-22T01:19:44.530Z,9.80
2023-02-22T01:19:54.624Z,9.70
2023-02-22T01:20:04.514Z,9.00
2023-02-22T01:20:15.243Z,9.00
2023-02-22T01:20:24.507Z,8.80
2023-02-22T01:20:34.512Z,8.80
2023-02-22T01:20:45.223Z,8.90
2023-02-22T01:20:55.213Z,9.20
2023-02-22T01:21:04.497Z,9.40
2023-02-22T01:21:14.792Z,9.30
2023-02-22T01:21:24.492Z,9.60
2023-02-22T01:21:35.218Z,9.50
2023-02-22T01:21:44.491Z,9.90
2023-02-22T01:21:55.224Z,9.60
2023-02-22T01:22:04.495Z,9.50
2023-02-22T01:22:14.487Z,9.20
2023-02-22T01:22:24.483Z,9.10
2023-02-22T01:22:34.502Z,9.30
2023-02-22T01:22:44.488Z,9.60
2023-02-22T01:22:54.497Z,9.60
2023-02-22T01:23:04.513Z,8.80
2023-02-22T01:23:14.515Z,8.70
2023-02-22T01:23:24.483Z,8.70
2023-02-22T01:23:34.607Z,9.10
2023-02-22T01:23:44.491Z,9.00
2023-02-22T01:23:54.544Z,9.00
2023-02-22T01:24:04.481Z,9.60
2023-02-22T01:24:14.668Z,9.60
2023-02-22T01:24:24.485Z,10.10
2023-02-22T01:24:34.482Z,9.90
2023-02-22T01:24:44.541Z,9.90
2023-02-22T01:24:54.482Z,9.50
2023-02-22T01:25:04.498Z,9.20
2023-02-22T01:25:14.492Z,9.00
2023-02-22T01:25:24.483Z,9.30
2023-02-22T01:25:34.476Z,9.30
2023-02-22T01:25:44.472Z,9.30
2023-02-22T01:25:54.489Z,9.20
2023-02-22T01:26:05.240Z,9.00
2023-02-22T01:26:14.480Z,9.30
2023-02-22T01:26:24.487Z,9.40
2023-02-22T01:26:34.482Z,9.40
2023-02-22T01:26:44.475Z,9.60
2023-02-22T01:26:54.511Z,9.30
2023-02-22T01:27:04.465Z,9.80
2023-02-22T01:27:15.227Z,9.90
2023-02-22T01:27:24.496Z,10.00
2023-02-22T01:27:34.470Z,9.90
2023-02-22T01:27:44.474Z,9.70
2023-02-22T01:27:54.514Z,10.00
2023-02-22T01:28:05.215Z,9.90
2023-02-22T01:28:14.665Z,9.50
2023-02-22T01:28:24.455Z,9.60
2023-02-22T01:28:34.595Z,9.50
2023-02-22T01:28:44.480Z,9.80
2023-02-22T01:28:54.465Z,9.30
2023-02-22T01:29:04.453Z,9.10
2023-02-22T01:29:14.499Z,9.40
2023-02-22T01:29:25.241Z,9.80
2023-02-22T01:29:34.453Z,10.30
2023-02-22T01:29:44.475Z,10.10
2023-02-22T01:29:54.531Z,9.70
2023-02-22T01:30:05.408Z,10.10
2023-02-22T01:30:15.248Z,9.70
2023-02-22T01:30:24.487Z,9.50
2023-02-22T01:30:34.618Z,9.60
2023-02-22T01:30:44.678Z,9.40
2023-02-22T01:30:54.511Z,9.60
2023-02-22T01:31:04.491Z,8.60
2023-02-22T01:31:14.719Z,9.40
2023-02-22T01:31:25.313Z,9.00
2023-02-22T01:31:34.516Z,9.30
2023-02-22T01:31:44.505Z,9.10
2023-02-22T01:31:54.524Z,10.00
2023-02-22T01:32:04.489Z,9.80
2023-02-22T01:32:14.538Z,9.70
2023-02-22T01:32:24.445Z,9.10
2023-02-22T01:32:34.460Z,9.10
2023-02-22T01:32:44.437Z,9.90
2023-02-22T01:32:54.453Z,10.00
2023-02-22T01:33:04.467Z,9.90
2023-02-22T01:33:14.463Z,9.30
2023-02-22T01:33:24.453Z,9.40
2023-02-22T01:33:34.484Z,9.50
2023-02-22T01:33:44.435Z,9.40
2023-02-22T01:33:54.438Z,9.30
2023-02-22T01:34:04.466Z,9.00
2023-02-22T01:34:14.463Z,9.10
2023-02-22T01:34:24.529Z,9.00
2023-02-22T01:34:34.438Z,9.00
2023-02-22T01:34:44.432Z,8.70
2023-02-22T01:34:54.469Z,8.80
2023-02-22T01:35:04.501Z,9.30
2023-02-22T01:35:14.464Z,9.60
2023-02-22T01:35:24.471Z,9.20
2023-02-22T01:35:34.430Z,9.10
2023-02-22T01:35:44.500Z,9.00
2023-02-22T01:35:54.451Z,9.60
2023-02-22T01:36:04.422Z,9.40
2023-02-22T01:36:14.463Z,9.30
2023-02-22T01:36:24.471Z,9.10
2023-02-22T01:36:34.430Z,8.60
2023-02-22T01:36:44.434Z,8.30
2023-02-22T01:36:54.426Z,8.20
2023-02-22T01:37:04.430Z,8.60
2023-02-22T01:37:14.433Z,8.90
2023-02-22T01:37:24.424Z,9.00
2023-02-22T01:37:34.515Z,9.60
2023-02-22T01:37:44.441Z,9.30
2023-02-22T01:37:54.427Z,9.50
2023-02-22T01:38:04.491Z,9.30
2023-02-22T01:38:14.464Z,9.80
2023-02-22T01:38:24.440Z,9.60
2023-02-22T01:38:34.507Z,9.20
2023-02-22T01:38:44.434Z,9.10
2023-02-22T01:38:54.411Z,9.00
2023-02-22T01:39:04.418Z,9.20
2023-02-22T01:39:14.430Z,9.50
2023-02-22T01:39:24.411Z,9.30
2023-02-22T01:39:34.421Z,9.30
2023-02-22T01:39:44.503Z,8.60
2023-02-22T01:39:54.415Z,9.00
2023-02-22T01:40:04.436Z,8.90
2023-02-22T01:40:14.466Z,9.40
2023-02-22T01:40:24.419Z,9.30
2023-02-22T01:40:35.260Z,9.30
2023-02-22T01:40:44.405Z,9.40
2023-02-22T01:40:54.421Z,9.50
2023-02-22T01:41:04.409Z,9.40
2023-02-22T01:41:14.887Z,8.80
2023-02-22T01:41:24.415Z,8.40
2023-02-22T01:41:34.424Z,8.80
2023-02-22T01:41:44.397Z,9.10
2023-02-22T01:41:54.413Z,9.20
2023-02-22T01:42:04.416Z,8.60
2023-02-22T01:42:14.407Z,9.00
2023-02-22T01:42:24.405Z,9.00
2023-02-22T01:42:34.437Z,9.30
2023-02-22T01:42:44.474Z,8.70
2023-02-22T01:42:54.420Z,8.80
2023-02-22T01:43:04.395Z,9.30
2023-02-22T01:43:14.413Z,9.40
2023-02-22T01:43:24.490Z,9.70
2023-02-22T01:43:34.424Z,9.30
2023-02-22T01:43:44.388Z,8.90
2023-02-22T01:43:54.396Z,8.40
2023-02-22T01:44:04.400Z,8.40
2023-02-22T01:44:14.387Z,9.10
2023-02-22T01:44:24.423Z,9.40
2023-02-22T01:44:34.483Z,9.30
2023-02-22T01:44:45.299Z,9.40
2023-02-22T01:44:55.179Z,9.60
2023-02-22T01:45:04.384Z,10.00
2023-02-22T01:45:14.392Z,9.30
2023-02-22T01:45:25.265Z,9.10
2023-02-22T01:45:34.385Z,8.80
2023-02-22T01:45:44.475Z,9.00
2023-02-22T01:45:55.282Z,9.20
2023-02-22T01:46:04.451Z,8.90
2023-02-22T01:46:14.455Z,9.70
2023-02-22T01:46:24.452Z,10.20
2023-02-22T01:46:34.394Z,10.60
2023-02-22T01:46:44.395Z,10.30
2023-02-22T01:46:54.492Z,10.20
2023-02-22T01:47:05.216Z,10.20
2023-02-22T01:47:14.417Z,9.90
2023-02-22T01:47:24.385Z,9.20
2023-02-22T01:47:34.376Z,9.10
2023-02-22T01:47:44.505Z,9.20
2023-02-22T01:47:54.381Z,9.00
2023-02-22T01:48:04.384Z,9.10
2023-02-22T01:48:14.365Z,9.00
2023-02-22T01:48:24.369Z,9.60
2023-02-22T01:48:34.399Z,9.70
2023-02-22T01:48:44.406Z,10.00
2023-02-22T01:48:54.428Z,9.50
2023-02-22T01:49:04.373Z,9.80
2023-02-22T01:49:14.373Z,9.50
2023-02-22T01:49:24.372Z,10.40
2023-02-22T01:49:34.383Z,10.20
2023-02-22T01:49:44.372Z,10.70
2023-02-22T01:49:54.364Z,10.30
2023-02-22T01:50:04.371Z,9.70
2023-02-22T01:50:14.366Z,9.20
2023-02-22T01:50:24.372Z,8.90
2023-02-22T01:50:34.425Z,9.20
2023-02-22T01:50:44.358Z,9.20
2023-02-22T01:50:54.369Z,9.30
2023-02-22T01:51:04.412Z,9.70
2023-02-22T01:51:14.609Z,9.60
2023-02-22T01:51:24.368Z,9.80
2023-02-22T01:51:34.353Z,9.30
2023-02-22T01:51:44.455Z,9.80
2023-02-22T01:51:54.363Z,9.40
2023-02-22T01:52:04.503Z,9.10
2023-02-22T01:52:14.367Z,8.30
2023-02-22T01:52:24.358Z,8.50
2023-02-22T01:52:34.360Z,8.40
2023-02-22T01:52:44.351Z,9.00
2023-02-22T01:52:54.382Z,8.90
2023-02-22T01:53:05.228Z,9.30
2023-02-22T01:53:14.347Z,9.10
2023-02-22T01:53:24.371Z,9.30
2023-02-22T01:53:34.366Z,9.50
2023-02-22T01:53:44.350Z,9.30
2023-02-22T01:53:54.354Z,9.40
2023-02-22T01:54:04.347Z,9.20
2023-02-22T01:54:14.344Z,9.40
2023-02-22T01:54:24.347Z,9.30
2023-02-22T01:54:34.446Z,9.70
2023-02-22T01:54:44.345Z,10.00
2023-02-22T01:54:54.367Z,9.80
2023-02-22T01:55:04.342Z,10.00
2023-02-22T01:55:14.420Z,9.50
2023-02-22T01:55:24.360Z,9.70
2023-02-22T01:55:34.347Z,9.20
2023-02-22T01:55:44.510Z,8.70
2023-02-22T01:55:54.346Z,8.60
2023-02-22T01:56:04.340Z,8.20
2023-02-22T01:56:14.343Z,8.70
2023-02-22T01:56:24.337Z,9.00
2023-02-22T01:56:34.396Z,9.10
2023-02-22T01:56:44.382Z,9.20
2023-02-22T01:56:54.327Z,9.10
2023-02-22T01:57:04.358Z,10.00
2023-02-22T01:57:15.224Z,10.00
2023-02-22T01:57:24.330Z,9.90
2023-02-22T01:57:34.339Z,9.60
2023-02-22T01:57:44.343Z,9.70
2023-02-22T01:57:54.327Z,10.00
2023-02-22T01:58:07.229Z,10.20
2023-02-22T01:58:14.333Z,10.50
2023-02-22T01:58:24.336Z,10.70
2023-02-22T01:58:34.341Z,10.40
2023-02-22T01:58:44.342Z,10.10
2023-02-22T01:58:54.335Z,9.30
2023-02-22T01:59:04.328Z,9.60
2023-02-22T01:59:14.323Z,9.60
2023-02-22T01:59:24.397Z,9.80
2023-02-22T01:59:34.366Z,9.70
2023-02-22T01:59:44.316Z,9.90
2023-02-22T01:59:54.331Z,9.70
2023-02-22T02:00:04.328Z,9.20
2023-02-22T02:00:14.319Z,9.40
2023-02-22T02:00:24.329Z,9.80
2023-02-22T02:00:34.369Z,9.90
2023-02-22T02:00:44.313Z,10.80
2023-02-22T02:00:54.360Z,10.90
2023-02-22T02:01:04.360Z,10.90
2023-02-22T02:01:14.629Z,9.90
2023-02-22T02:01:24.339Z,9.70
2023-02-22T02:01:34.319Z,9.70
2023-02-22T02:01:44.318Z,9.50
2023-02-22T02:01:54.325Z,9.50
2023-02-22T02:02:04.320Z,9.40
2023-02-22T02:02:14.310Z,9.40
2023-02-22T02:02:24.308Z,9.20
2023-02-22T02:02:34.321Z,9.10
2023-02-22T02:02:44.326Z,9.40
2023-02-22T02:02:54.334Z,9.80
2023-02-22T02:03:05.226Z,10.50
2023-02-22T02:03:14.487Z,10.00
2023-02-22T02:03:24.310Z,9.80
2023-02-22T02:03:35.217Z,9.30
2023-02-22T02:03:44.330Z,9.80
2023-02-22T02:03:54.345Z,11.00
2023-02-22T02:04:04.339Z,11.10
2023-02-22T02:04:14.358Z,10.90
2023-02-22T02:04:24.315Z,10.40
2023-02-22T02:04:34.361Z,10.60
2023-02-22T02:04:44.338Z,10.60
2023-02-22T02:04:54.333Z,10.80
2023-02-22T02:05:04.338Z,11.00
2023-02-22T02:05:14.350Z,11.40
2023-02-22T02:05:24.344Z,11.00
2023-02-22T02:05:35.242Z,10.80
2023-02-22T02:05:44.445Z,10.20
2023-02-22T02:05:54.308Z,9.80
2023-02-22T02:06:04.345Z,9.90
2023-02-22T02:06:14.299Z,10.20
2023-02-22T02:06:24.368Z,10.50
2023-02-22T02:06:34.292Z,10.80
2023-02-22T02:06:44.311Z,10.40
2023-02-22T02:06:54.290Z,10.40
2023-02-22T02:07:04.308Z,10.60
2023-02-22T02:07:14.330Z,10.60
2023-02-22T02:07:24.288Z,10.70
2023-02-22T02:07:34.324Z,10.30
2023-02-22T02:07:44.360Z,10.70
2023-02-22T02:07:54.289Z,10.40
2023-02-22T02:08:04.282Z,10.20
2023-02-22T02:08:15.234Z,10.10
2023-02-22T02:08:25.219Z,9.90
2023-02-22T02:08:34.341Z,10.30
2023-02-22T02:08:44.305Z,10.60
2023-02-22T02:08:54.286Z,10.30
2023-02-22T02:09:04.294Z,10.10
2023-02-22T02:09:14.277Z,9.60
2023-02-22T02:09:24.313Z,9.60
2023-02-22T02:09:34.325Z,9.30
2023-02-22T02:09:44.351Z,9.70
2023-02-22T02:09:54.273Z,9.90
2023-02-22T02:10:04.319Z,10.70
2023-02-22T02:10:15.252Z,11.00
2023-02-22T02:10:24.309Z,10.80
2023-02-22T02:10:34.286Z,10.30
2023-02-22T02:10:44.344Z,10.10
2023-02-22T02:10:54.311Z,9.90
2023-02-22T02:11:04.285Z,10.10
2023-02-22T02:11:14.613Z,9.70
2023-02-22T02:11:24.283Z,9.80
2023-02-22T02:11:34.273Z,9.90
2023-02-22T02:11:44.303Z,9.70
2023-02-22T02:11:54.340Z,9.80
2023-02-22T02:12:04.276Z,9.90
2023-02-22T02:12:14.287Z,10.00
2023-02-22T02:12:24.298Z,10.40
2023-02-22T02:12:34.267Z,10.90